ADDS TAF Board (Experimental) INFO Settings
IDs: Format: Expanded Condensed

KIAD - Washington/Dulles In, VA, US

Issued at 1443 UTC 25 Jun 2016
Updated at: 1549 UTC 25 Jun 2016
Time1542Z 25/16Z 25/17Z 25/18Z 25/19Z 25/20Z 25/21Z 25/22Z 25/23Z 26/00Z 26/01Z 26/02Z 26/03Z 26/04Z
Type OBS PRVL PRVL PRVL PRVL PRVL PRVL PRVL PRVL PRVL PRVL PRVL PRVL PRVL
VIS 10 >6 >6 >6 >6 >6 >6 >6 >6 >6 >6 >6 >6 >6
CIG -- 35 35 35 -- -- -- -- -- -- -- -- -- --
Cover SCT BKN BKN BKN SCT SCT SCT SCT SCT SKC SKC SKC SKC SKC
FltCat VFR VFR VFR VFR VFR VFR VFR VFR VFR VFR VFR VFR VFR VFR
WX -- -- -- -- -- -- -- -- -- -- -- -- -- --
WDir 90 50 50 50 80 80 80 80 80 VRB VRB VRB VRB VRB
WSpd 3 5 5 5 6 6 6 6 6 3 3 3 3 3
WGst -- -- -- -- -- -- -- -- -- -- -- -- -- --
R01/19
XWnd -3 -4 -4 -4 -6 -6 -6 -6 -6 VRB VRB VRB VRB VRB
HWnd 0 3 3 3 1 1 1 1 1 VRB VRB VRB VRB VRB
R12/30
XWnd 1 4 4 4 3 3 3 3 3 VRB VRB VRB VRB VRB
HWnd 3 2 2 2 5 5 5 5 5 VRB VRB VRB VRB VRB

NOTE: TEMPO conditions in [brackets]. Keep in mind TEMPO conditions might be better (lower impact) than prevailing conditions.

Raw TAF
KIAD 251443Z 2515/2618 05005KT P6SM SCT017 BKN035
  FM251900 08006KT P6SM SCT050
  FM260000 VRB03KT P6SM SKC
  FM261500 15005KT P6SM FEW050


Raw METAR
KIAD 251542Z 09003KT 10SM SCT036 26/18 A3020 RMK AO2 T02560178
KIAD 251452Z 13004KT 10SM BKN021 BKN035 24/18 A3020 RMK AO2 SLP224 T02440183 51013
KIAD 251352Z 05005KT 10SM SCT017 BKN029 23/18 A3019 RMK AO2 SLP221 T02280183
KIAD 251252Z 03004KT 10SM OVC026 22/18 A3018 RMK AO2 SLP216 T02220183

METAR Board
Radar Display
Forecast Discussion

TAF Board Legend

Potential Impact
Threat None Slight Moderate High
Visibility (sm) ≥5.1 5.1>X≥3 3>X≥1 <1
Ceiling (100 ft) ≥30.1 30.1>X≥10 10>X≥5 <5
Wind Speed (kt) <10 10≤X<20 20≤X<30 ≥30
Wind Gust (kt) <15 15≤X<25 25≤X<35 ≥35
Weather No Wx Reported VCTS,-TS,-FZRA,SN TS,FZRA +TS,+FZRA,+SN